sensor_id;sensor_type;location;lat;lon;timestamp;P1;durP1;ratioP1;P2;durP2;ratioP2
28245;SDS011;15510;52.512;13.300;2022-11-06T19:07:43;7.93;;;6.43;;
28245;SDS011;15510;52.512;13.300;2022-11-06T19:10:10;9.67;;;5.90;;
28245;SDS011;15510;52.512;13.300;2022-11-06T19:12:38;8.10;;;5.83;;
28245;SDS011;15510;52.512;13.300;2022-11-06T19:15:04;16.30;;;9.97;;
28245;SDS011;15510;52.512;13.300;2022-11-06T19:17:30;9.00;;;6.90;;
28245;SDS011;15510;52.512;13.300;2022-11-06T19:19:55;9.33;;;7.00;;
28245;SDS011;15510;52.512;13.300;2022-11-06T19:22:21;11.57;;;6.27;;
28245;SDS011;15510;52.512;13.300;2022-11-06T19:24:46;8.80;;;6.40;;
28245;SDS011;15510;52.512;13.300;2022-11-06T19:27:12;9.80;;;6.00;;
28245;SDS011;15510;52.512;13.300;2022-11-06T19:29:38;8.67;;;5.90;;
28245;SDS011;15510;52.512;13.300;2022-11-06T19:32:03;11.20;;;6.73;;
28245;SDS011;15510;52.512;13.300;2022-11-06T19:34:29;8.83;;;7.17;;
28245;SDS011;15510;52.512;13.300;2022-11-06T19:36:55;9.27;;;7.23;;
28245;SDS011;15510;52.512;13.300;2022-11-06T19:39:21;12.20;;;6.93;;
28245;SDS011;15510;52.512;13.300;2022-11-06T19:41:47;10.20;;;7.43;;
28245;SDS011;15510;52.512;13.300;2022-11-06T19:44:12;10.47;;;6.70;;
28245;SDS011;15510;52.512;13.300;2022-11-06T19:46:38;10.80;;;7.43;;
28245;SDS011;15510;52.512;13.300;2022-11-06T19:49:04;11.50;;;7.00;;
28245;SDS011;15510;52.512;13.300;2022-11-06T19:51:31;8.87;;;6.90;;
28245;SDS011;15510;52.512;13.300;2022-11-06T19:53:57;7.83;;;6.97;;
28245;SDS011;15510;52.512;13.300;2022-11-06T19:56:25;10.90;;;6.83;;
28245;SDS011;15510;52.512;13.300;2022-11-06T19:58:51;12.43;;;8.27;;
28245;SDS011;15510;52.512;13.300;2022-11-06T20:01:18;10.67;;;7.97;;
28245;SDS011;15510;52.512;13.300;2022-11-06T20:03:44;14.90;;;8.13;;
28245;SDS011;15510;52.512;13.300;2022-11-06T20:06:10;11.23;;;7.70;;
28245;SDS011;15510;52.512;13.300;2022-11-06T20:08:37;11.30;;;7.93;;
28245;SDS011;15510;52.512;13.300;2022-11-06T20:11:07;12.53;;;8.60;;
28245;SDS011;15510;52.512;13.300;2022-11-06T20:13:37;13.73;;;9.33;;
28245;SDS011;15510;52.512;13.300;2022-11-06T20:16:04;14.27;;;10.07;;
28245;SDS011;15510;52.512;13.300;2022-11-06T20:18:31;14.60;;;10.03;;
28245;SDS011;15510;52.512;13.300;2022-11-06T20:21:01;12.57;;;9.23;;
28245;SDS011;15510;52.512;13.300;2022-11-06T20:23:28;13.80;;;9.07;;
28245;SDS011;15510;52.512;13.300;2022-11-06T20:25:55;14.00;;;9.90;;
28245;SDS011;15510;52.512;13.300;2022-11-06T20:28:21;19.73;;;13.43;;
28245;SDS011;15510;52.512;13.300;2022-11-06T20:30:47;14.30;;;10.07;;
28245;SDS011;15510;52.512;13.300;2022-11-06T20:33:13;15.43;;;9.97;;
28245;SDS011;15510;52.512;13.300;2022-11-06T20:35:39;14.17;;;9.93;;
28245;SDS011;15510;52.512;13.300;2022-11-06T20:38:05;15.97;;;10.87;;
28245;SDS011;15510;52.512;13.300;2022-11-06T20:40:32;16.97;;;12.13;;
28245;SDS011;15510;52.512;13.300;2022-11-06T20:42:57;18.17;;;12.13;;
28245;SDS011;15510;52.512;13.300;2022-11-06T20:45:23;18.77;;;12.53;;
28245;SDS011;15510;52.512;13.300;2022-11-06T20:47:49;16.80;;;11.93;;
28245;SDS011;15510;52.512;13.300;2022-11-06T20:50:14;17.37;;;11.80;;
28245;SDS011;15510;52.512;13.300;2022-11-06T20:52:40;18.43;;;11.77;;
28245;SDS011;15510;52.512;13.300;2022-11-06T20:55:06;15.20;;;11.73;;
28245;SDS011;15510;52.512;13.300;2022-11-06T20:57:32;17.50;;;11.93;;
28245;SDS011;15510;52.512;13.300;2022-11-06T20:59:57;17.37;;;12.07;;
28245;SDS011;15510;52.512;13.300;2022-11-06T21:02:23;17.67;;;12.27;;
28245;SDS011;15510;52.512;13.300;2022-11-06T21:04:49;15.37;;;11.73;;
28245;SDS011;15510;52.512;13.300;2022-11-06T21:07:14;20.57;;;11.63;;
28245;SDS011;15510;52.512;13.300;2022-11-06T21:09:40;18.53;;;11.83;;
28245;SDS011;15510;52.512;13.300;2022-11-06T21:12:06;16.93;;;12.13;;
28245;SDS011;15510;52.512;13.300;2022-11-06T21:14:31;14.40;;;10.87;;
28245;SDS011;15510;52.512;13.300;2022-11-06T21:16:57;14.83;;;10.87;;
28245;SDS011;15510;52.512;13.300;2022-11-06T21:19:23;16.70;;;12.33;;
28245;SDS011;15510;52.512;13.300;2022-11-06T21:21:49;16.43;;;11.30;;
28245;SDS011;15510;52.512;13.300;2022-11-06T21:24:14;16.73;;;11.90;;
28245;SDS011;15510;52.512;13.300;2022-11-06T21:26:40;17.27;;;12.03;;
28245;SDS011;15510;52.512;13.300;2022-11-06T21:29:07;17.27;;;11.10;;
28245;SDS011;15510;52.512;13.300;2022-11-06T21:31:37;14.43;;;10.57;;
28245;SDS011;15510;52.512;13.300;2022-11-06T21:34:03;15.60;;;11.33;;
28245;SDS011;15510;52.512;13.300;2022-11-06T21:36:30;15.20;;;11.27;;
28245;SDS011;15510;52.512;13.300;2022-11-06T21:39:02;13.37;;;9.97;;
28245;SDS011;15510;52.512;13.300;2022-11-06T21:41:33;16.43;;;12.23;;
28245;SDS011;15510;52.512;13.300;2022-11-06T21:44:00;17.20;;;11.33;;
28245;SDS011;15510;52.512;13.300;2022-11-06T21:46:26;13.17;;;10.70;;
28245;SDS011;15510;52.512;13.300;2022-11-06T21:48:52;15.07;;;11.03;;
28245;SDS011;15510;52.512;13.300;2022-11-06T21:51:19;15.10;;;11.57;;
28245;SDS011;15510;52.512;13.300;2022-11-06T21:53:46;16.93;;;11.67;;
28245;SDS011;15510;52.512;13.300;2022-11-06T21:56:46;14.37;;;11.10;;
28245;SDS011;15510;52.512;13.300;2022-11-06T21:59:14;17.97;;;11.97;;
28245;SDS011;15510;52.512;13.300;2022-11-06T22:01:41;17.90;;;12.07;;
28245;SDS011;15510;52.512;13.300;2022-11-06T22:04:07;20.23;;;12.20;;
28245;SDS011;15510;52.512;13.300;2022-11-06T22:06:33;18.13;;;12.40;;
28245;SDS011;15510;52.512;13.300;2022-11-06T22:09:00;18.83;;;12.33;;
28245;SDS011;15510;52.512;13.300;2022-11-06T22:11:40;17.50;;;12.47;;
28245;SDS011;15510;52.512;13.300;2022-11-06T22:14:09;16.23;;;11.67;;
28245;SDS011;15510;52.512;13.300;2022-11-06T22:16:38;15.93;;;11.70;;
28245;SDS011;15510;52.512;13.300;2022-11-06T22:19:06;17.07;;;11.70;;
28245;SDS011;15510;52.512;13.300;2022-11-06T22:21:33;16.00;;;12.03;;
28245;SDS011;15510;52.512;13.300;2022-11-06T22:24:00;16.17;;;11.77;;
28245;SDS011;15510;52.512;13.300;2022-11-06T22:26:27;15.27;;;11.77;;
28245;SDS011;15510;52.512;13.300;2022-11-06T22:28:56;15.17;;;11.57;;
28245;SDS011;15510;52.512;13.300;2022-11-06T22:31:23;16.97;;;12.30;;
28245;SDS011;15510;52.512;13.300;2022-11-06T22:33:50;15.30;;;11.57;;
28245;SDS011;15510;52.512;13.300;2022-11-06T22:36:16;16.63;;;11.47;;
28245;SDS011;15510;52.512;13.300;2022-11-06T22:38:44;14.77;;;11.13;;
28245;SDS011;15510;52.512;13.300;2022-11-06T22:41:11;15.77;;;11.63;;
28245;SDS011;15510;52.512;13.300;2022-11-06T22:43:39;17.63;;;11.73;;
28245;SDS011;15510;52.512;13.300;2022-11-06T22:46:06;16.13;;;11.43;;
28245;SDS011;15510;52.512;13.300;2022-11-06T22:48:35;16.57;;;11.60;;
28245;SDS011;15510;52.512;13.300;2022-11-06T22:51:01;15.53;;;11.80;;
28245;SDS011;15510;52.512;13.300;2022-11-06T22:53:36;16.13;;;11.37;;
28245;SDS011;15510;52.512;13.300;2022-11-06T22:56:02;16.03;;;11.80;;
28245;SDS011;15510;52.512;13.300;2022-11-06T22:58:28;14.80;;;11.00;;
28245;SDS011;15510;52.512;13.300;2022-11-06T23:00:55;15.53;;;11.37;;
28245;SDS011;15510;52.512;13.300;2022-11-06T23:03:21;15.17;;;11.37;;
28245;SDS011;15510;52.512;13.300;2022-11-06T23:05:48;14.20;;;11.43;;
28245;SDS011;15510;52.512;13.300;2022-11-06T23:08:14;16.80;;;10.90;;
28245;SDS011;15510;52.512;13.300;2022-11-06T23:10:40;14.33;;;11.37;;
28245;SDS011;15510;52.512;13.300;2022-11-06T23:13:07;14.73;;;10.93;;
28245;SDS011;15510;52.512;13.300;2022-11-06T23:15:34;14.30;;;10.47;;
28245;SDS011;15510;52.512;13.300;2022-11-06T23:18:00;15.53;;;11.13;;
28245;SDS011;15510;52.512;13.300;2022-11-06T23:20:28;14.60;;;11.23;;
28245;SDS011;15510;52.512;13.300;2022-11-06T23:22:57;14.40;;;10.80;;
28245;SDS011;15510;52.512;13.300;2022-11-06T23:25:24;15.77;;;11.10;;
28245;SDS011;15510;52.512;13.300;2022-11-06T23:27:51;14.83;;;11.80;;
28245;SDS011;15510;52.512;13.300;2022-11-06T23:30:17;14.67;;;11.67;;
28245;SDS011;15510;52.512;13.300;2022-11-06T23:32:43;15.73;;;11.13;;
28245;SDS011;15510;52.512;13.300;2022-11-06T23:35:10;15.50;;;11.20;;
28245;SDS011;15510;52.512;13.300;2022-11-06T23:37:37;14.83;;;11.17;;
28245;SDS011;15510;52.512;13.300;2022-11-06T23:40:03;19.53;;;11.93;;
28245;SDS011;15510;52.512;13.300;2022-11-06T23:42:29;15.33;;;11.13;;
28245;SDS011;15510;52.512;13.300;2022-11-06T23:44:55;16.50;;;11.70;;
28245;SDS011;15510;52.512;13.300;2022-11-06T23:47:38;14.33;;;11.23;;
28245;SDS011;15510;52.512;13.300;2022-11-06T23:50:04;15.80;;;11.23;;
28245;SDS011;15510;52.512;13.300;2022-11-06T23:52:30;16.30;;;10.90;;
28245;SDS011;15510;52.512;13.300;2022-11-06T23:54:56;14.40;;;11.77;;
28245;SDS011;15510;52.512;13.300;2022-11-06T23:57:22;16.27;;;11.53;;
28245;SDS011;15510;52.512;13.300;2022-11-06T23:59:47;16.00;;;11.47;;
